sensor_id;sensor_type;location;lat;lon;timestamp;pressure;altitude;pressure_sealevel;temperature;humidity
77106;BME280;66057;54.718;18.426;2022-12-18T00:00:30;102895.91;;;-4.55;86.48
77106;BME280;66057;54.718;18.426;2022-12-18T00:03:15;102889.09;;;-4.56;86.69
77106;BME280;66057;54.718;18.426;2022-12-18T00:05:49;102894.81;;;-4.57;86.37
77106;BME280;66057;54.718;18.426;2022-12-18T00:08:16;102898.50;;;-4.60;85.85
77106;BME280;66057;54.718;18.426;2022-12-18T00:10:43;102894.38;;;-4.60;85.87
77106;BME280;66057;54.718;18.426;2022-12-18T00:13:09;102890.16;;;-4.66;87.24
77106;BME280;66057;54.718;18.426;2022-12-18T00:15:36;102892.25;;;-4.69;85.98
77106;BME280;66057;54.718;18.426;2022-12-18T00:18:02;102893.38;;;-4.67;86.02
77106;BME280;66057;54.718;18.426;2022-12-18T00:20:28;102902.28;;;-4.69;87.72
77106;BME280;66057;54.718;18.426;2022-12-18T00:22:54;102908.19;;;-4.69;86.06
77106;BME280;66057;54.718;18.426;2022-12-18T00:25:20;102902.78;;;-4.72;86.53
77106;BME280;66057;54.718;18.426;2022-12-18T00:27:47;102905.28;;;-4.72;86.17
77106;BME280;66057;54.718;18.426;2022-12-18T00:30:13;102901.66;;;-4.74;87.07
77106;BME280;66057;54.718;18.426;2022-12-18T00:32:39;102903.06;;;-4.76;85.93
77106;BME280;66057;54.718;18.426;2022-12-18T00:35:06;102897.63;;;-4.79;86.55
77106;BME280;66057;54.718;18.426;2022-12-18T00:37:33;102899.66;;;-4.76;87.07
77106;BME280;66057;54.718;18.426;2022-12-18T00:39:59;102907.81;;;-4.72;87.18
77106;BME280;66057;54.718;18.426;2022-12-18T00:42:25;102897.53;;;-4.73;87.93
77106;BME280;66057;54.718;18.426;2022-12-18T00:45:09;102899.44;;;-4.78;86.83
77106;BME280;66057;54.718;18.426;2022-12-18T00:47:35;102910.72;;;-4.69;87.40
77106;BME280;66057;54.718;18.426;2022-12-18T00:50:01;102909.63;;;-4.71;86.92
77106;BME280;66057;54.718;18.426;2022-12-18T00:52:26;102904.09;;;-4.68;87.39
77106;BME280;66057;54.718;18.426;2022-12-18T00:54:52;102898.78;;;-4.64;86.26
77106;BME280;66057;54.718;18.426;2022-12-18T00:57:18;102913.16;;;-4.63;87.46
77106;BME280;66057;54.718;18.426;2022-12-18T00:59:43;102909.31;;;-4.67;86.20
77106;BME280;66057;54.718;18.426;2022-12-18T01:02:09;102899.50;;;-4.65;87.56
77106;BME280;66057;54.718;18.426;2022-12-18T01:04:35;102915.66;;;-4.63;87.42
77106;BME280;66057;54.718;18.426;2022-12-18T01:07:01;102909.88;;;-4.57;86.33
77106;BME280;66057;54.718;18.426;2022-12-18T01:09:26;102936.81;;;-4.43;87.95
77106;BME280;66057;54.718;18.426;2022-12-18T01:11:52;102921.97;;;-4.42;87.18
77106;BME280;66057;54.718;18.426;2022-12-18T01:14:18;102932.41;;;-4.38;86.99
77106;BME280;66057;54.718;18.426;2022-12-18T01:16:43;102928.06;;;-4.40;86.98
77106;BME280;66057;54.718;18.426;2022-12-18T01:19:09;102928.38;;;-4.44;85.98
77106;BME280;66057;54.718;18.426;2022-12-18T01:21:35;102938.63;;;-4.42;87.31
77106;BME280;66057;54.718;18.426;2022-12-18T01:24:01;102936.03;;;-4.36;86.21
77106;BME280;66057;54.718;18.426;2022-12-18T01:26:26;102941.75;;;-4.37;86.66
77106;BME280;66057;54.718;18.426;2022-12-18T01:28:55;102948.00;;;-4.28;86.93
77106;BME280;66057;54.718;18.426;2022-12-18T01:31:27;102937.97;;;-4.28;86.95
77106;BME280;66057;54.718;18.426;2022-12-18T01:33:54;102935.16;;;-4.24;88.17
77106;BME280;66057;54.718;18.426;2022-12-18T01:36:23;102944.41;;;-4.18;86.06
77106;BME280;66057;54.718;18.426;2022-12-18T01:38:49;102948.22;;;-4.14;87.40
77106;BME280;66057;54.718;18.426;2022-12-18T01:41:17;102937.28;;;-4.15;86.64
77106;BME280;66057;54.718;18.426;2022-12-18T01:46:13;102946.19;;;-4.17;87.01
77106;BME280;66057;54.718;18.426;2022-12-18T01:48:40;102956.06;;;-4.18;87.12
77106;BME280;66057;54.718;18.426;2022-12-18T01:51:08;102957.88;;;-4.17;85.60
77106;BME280;66057;54.718;18.426;2022-12-18T01:53:36;102939.66;;;-4.22;86.18
77106;BME280;66057;54.718;18.426;2022-12-18T01:56:02;102955.16;;;-4.19;87.05
77106;BME280;66057;54.718;18.426;2022-12-18T01:59:04;102948.16;;;-4.09;87.33
77106;BME280;66057;54.718;18.426;2022-12-18T02:01:32;102945.63;;;-4.09;86.33
77106;BME280;66057;54.718;18.426;2022-12-18T02:10:20;102948.38;;;-3.94;87.01
77106;BME280;66057;54.718;18.426;2022-12-18T02:13:03;102960.25;;;-3.93;85.90
77106;BME280;66057;54.718;18.426;2022-12-18T02:18:18;102956.72;;;-3.88;85.76
77106;BME280;66057;54.718;18.426;2022-12-18T02:20:47;102939.94;;;-3.95;86.60
77106;BME280;66057;54.718;18.426;2022-12-18T02:28:40;102956.00;;;-3.87;85.32
77106;BME280;66057;54.718;18.426;2022-12-18T02:31:11;102962.75;;;-3.81;86.65
77106;BME280;66057;54.718;18.426;2022-12-18T02:33:40;102959.94;;;-3.77;86.97
77106;BME280;66057;54.718;18.426;2022-12-18T02:36:08;102967.19;;;-3.73;86.00
77106;BME280;66057;54.718;18.426;2022-12-18T02:38:34;102963.97;;;-3.72;85.29
77106;BME280;66057;54.718;18.426;2022-12-18T02:41:02;102974.03;;;-3.72;85.96
77106;BME280;66057;54.718;18.426;2022-12-18T02:43:29;102973.50;;;-3.69;86.25
77106;BME280;66057;54.718;18.426;2022-12-18T02:46:00;102969.81;;;-3.66;85.72
77106;BME280;66057;54.718;18.426;2022-12-18T02:48:32;102967.59;;;-3.70;85.92
77106;BME280;66057;54.718;18.426;2022-12-18T02:51:21;102965.56;;;-3.72;84.76
77106;BME280;66057;54.718;18.426;2022-12-18T02:56:51;102978.03;;;-3.67;85.11
77106;BME280;66057;54.718;18.426;2022-12-18T02:59:28;102971.13;;;-3.62;85.92
77106;BME280;66057;54.718;18.426;2022-12-18T03:04:45;102987.09;;;-3.62;85.15
77106;BME280;66057;54.718;18.426;2022-12-18T03:07:15;102979.88;;;-3.66;85.82
77106;BME280;66057;54.718;18.426;2022-12-18T03:09:46;102994.63;;;-3.62;85.04
77106;BME280;66057;54.718;18.426;2022-12-18T03:12:21;102995.72;;;-3.60;86.20
77106;BME280;66057;54.718;18.426;2022-12-18T03:17:27;102992.34;;;-3.60;85.78
77106;BME280;66057;54.718;18.426;2022-12-18T03:19:56;103003.00;;;-3.56;84.74
77106;BME280;66057;54.718;18.426;2022-12-18T03:22:24;102997.75;;;-3.57;85.13
77106;BME280;66057;54.718;18.426;2022-12-18T03:24:54;103028.44;;;-3.47;85.05
77106;BME280;66057;54.718;18.426;2022-12-18T03:27:23;103023.63;;;-3.45;85.02
77106;BME280;66057;54.718;18.426;2022-12-18T03:30:05;103010.53;;;-3.43;85.55
77106;BME280;66057;54.718;18.426;2022-12-18T03:32:43;103002.78;;;-3.44;84.96
77106;BME280;66057;54.718;18.426;2022-12-18T03:35:14;103012.53;;;-3.40;83.93
77106;BME280;66057;54.718;18.426;2022-12-18T03:37:43;103007.09;;;-3.43;84.13
77106;BME280;66057;54.718;18.426;2022-12-18T03:40:09;103007.41;;;-3.47;83.55
77106;BME280;66057;54.718;18.426;2022-12-18T03:42:46;103020.38;;;-3.44;83.94
77106;BME280;66057;54.718;18.426;2022-12-18T03:45:23;103021.19;;;-3.51;85.63
77106;BME280;66057;54.718;18.426;2022-12-18T03:53:46;103033.16;;;-3.56;84.08
77106;BME280;66057;54.718;18.426;2022-12-18T03:55:47;103034.53;;;-3.58;85.08
77106;BME280;66057;54.718;18.426;2022-12-18T03:58:17;103040.69;;;-3.56;85.64
77106;BME280;66057;54.718;18.426;2022-12-18T04:00:45;103033.41;;;-3.60;83.84
77106;BME280;66057;54.718;18.426;2022-12-18T04:03:13;103022.88;;;-3.70;85.43
77106;BME280;66057;54.718;18.426;2022-12-18T04:05:42;103047.88;;;-3.64;85.18
77106;BME280;66057;54.718;18.426;2022-12-18T04:08:08;103055.84;;;-3.61;84.35
77106;BME280;66057;54.718;18.426;2022-12-18T04:10:34;103048.63;;;-3.65;85.43
77106;BME280;66057;54.718;18.426;2022-12-18T04:13:00;103047.56;;;-3.73;85.39
77106;BME280;66057;54.718;18.426;2022-12-18T04:15:26;103049.09;;;-3.68;85.39
77106;BME280;66057;54.718;18.426;2022-12-18T04:17:52;103046.78;;;-3.66;85.67
77106;BME280;66057;54.718;18.426;2022-12-18T04:20:18;103053.13;;;-3.63;83.97
77106;BME280;66057;54.718;18.426;2022-12-18T04:22:43;103055.03;;;-3.67;83.81
77106;BME280;66057;54.718;18.426;2022-12-18T04:25:09;103054.41;;;-3.72;83.87
77106;BME280;66057;54.718;18.426;2022-12-18T04:27:35;103055.31;;;-3.71;85.02
77106;BME280;66057;54.718;18.426;2022-12-18T04:30:00;103060.34;;;-3.71;84.25
77106;BME280;66057;54.718;18.426;2022-12-18T04:32:26;103061.75;;;-3.73;85.57
77106;BME280;66057;54.718;18.426;2022-12-18T04:34:52;103064.06;;;-3.75;85.05
77106;BME280;66057;54.718;18.426;2022-12-18T04:37:18;103059.75;;;-3.76;84.96
77106;BME280;66057;54.718;18.426;2022-12-18T04:39:43;103065.09;;;-3.67;85.63
77106;BME280;66057;54.718;18.426;2022-12-18T04:42:09;103060.75;;;-3.68;85.37
77106;BME280;66057;54.718;18.426;2022-12-18T04:44:36;103065.38;;;-3.71;85.15
77106;BME280;66057;54.718;18.426;2022-12-18T04:47:02;103068.50;;;-3.67;85.33
77106;BME280;66057;54.718;18.426;2022-12-18T04:49:27;103069.19;;;-3.68;85.62
77106;BME280;66057;54.718;18.426;2022-12-18T04:51:53;103063.97;;;-3.69;84.64
77106;BME280;66057;54.718;18.426;2022-12-18T04:54:19;103063.78;;;-3.71;84.82
77106;BME280;66057;54.718;18.426;2022-12-18T04:56:44;103084.41;;;-3.61;84.92
77106;BME280;66057;54.718;18.426;2022-12-18T04:59:10;103071.63;;;-3.62;84.19
77106;BME280;66057;54.718;18.426;2022-12-18T05:01:36;103071.22;;;-3.65;84.25
77106;BME280;66057;54.718;18.426;2022-12-18T05:04:02;103080.16;;;-3.55;83.70
77106;BME280;66057;54.718;18.426;2022-12-18T05:06:28;103075.66;;;-3.57;84.43
77106;BME280;66057;54.718;18.426;2022-12-18T05:08:54;103082.00;;;-3.54;84.39
77106;BME280;66057;54.718;18.426;2022-12-18T05:11:19;103085.13;;;-3.49;83.21
77106;BME280;66057;54.718;18.426;2022-12-18T05:13:45;103096.59;;;-3.51;82.43
77106;BME280;66057;54.718;18.426;2022-12-18T05:16:12;103096.88;;;-3.55;83.43
77106;BME280;66057;54.718;18.426;2022-12-18T05:18:38;103102.63;;;-3.56;82.97
77106;BME280;66057;54.718;18.426;2022-12-18T05:21:04;103112.22;;;-3.59;83.28
77106;BME280;66057;54.718;18.426;2022-12-18T05:23:30;103101.56;;;-3.64;82.57
77106;BME280;66057;54.718;18.426;2022-12-18T05:26:01;103107.72;;;-3.62;82.01
77106;BME280;66057;54.718;18.426;2022-12-18T05:28:29;103117.47;;;-3.58;81.89
77106;BME280;66057;54.718;18.426;2022-12-18T05:30:57;103115.63;;;-3.71;81.60
77106;BME280;66057;54.718;18.426;2022-12-18T05:33:25;103120.88;;;-3.70;82.59
77106;BME280;66057;54.718;18.426;2022-12-18T05:35:52;103129.56;;;-3.73;81.95
77106;BME280;66057;54.718;18.426;2022-12-18T05:38:19;103136.09;;;-3.81;81.46
77106;BME280;66057;54.718;18.426;2022-12-18T05:40:47;103139.00;;;-3.78;81.46
77106;BME280;66057;54.718;18.426;2022-12-18T05:43:13;103130.16;;;-3.81;80.89
77106;BME280;66057;54.718;18.426;2022-12-18T05:45:39;103127.72;;;-3.87;80.95
77106;BME280;66057;54.718;18.426;2022-12-18T05:48:05;103146.00;;;-3.88;79.86
77106;BME280;66057;54.718;18.426;2022-12-18T05:50:35;103138.28;;;-3.89;81.08
77106;BME280;66057;54.718;18.426;2022-12-18T05:53:02;103134.72;;;-3.97;80.08
77106;BME280;66057;54.718;18.426;2022-12-18T05:55:28;103153.00;;;-3.98;81.28
77106;BME280;66057;54.718;18.426;2022-12-18T05:57:54;103157.81;;;-4.00;80.40
77106;BME280;66057;54.718;18.426;2022-12-18T06:00:20;103152.56;;;-4.01;79.16
77106;BME280;66057;54.718;18.426;2022-12-18T06:02:48;103144.34;;;-4.18;80.84
77106;BME280;66057;54.718;18.426;2022-12-18T06:05:14;103147.41;;;-4.26;80.61
77106;BME280;66057;54.718;18.426;2022-12-18T06:07:40;103154.41;;;-4.36;80.17
77106;BME280;66057;54.718;18.426;2022-12-18T06:10:06;103154.41;;;-4.36;80.98
77106;BME280;66057;54.718;18.426;2022-12-18T06:12:32;103155.13;;;-4.43;80.44
77106;BME280;66057;54.718;18.426;2022-12-18T06:14:59;103164.53;;;-4.48;80.96
77106;BME280;66057;54.718;18.426;2022-12-18T06:17:29;103171.81;;;-4.44;82.42
77106;BME280;66057;54.718;18.426;2022-12-18T06:19:55;103166.94;;;-4.36;81.30
77106;BME280;66057;54.718;18.426;2022-12-18T06:22:21;103166.66;;;-4.32;80.59
77106;BME280;66057;54.718;18.426;2022-12-18T06:24:47;103176.72;;;-4.32;81.07
77106;BME280;66057;54.718;18.426;2022-12-18T06:27:12;103173.41;;;-4.26;80.73
77106;BME280;66057;54.718;18.426;2022-12-18T06:29:38;103182.81;;;-4.30;82.16
77106;BME280;66057;54.718;18.426;2022-12-18T06:32:04;103183.97;;;-4.28;81.64
77106;BME280;66057;54.718;18.426;2022-12-18T06:34:30;103189.19;;;-4.27;80.72
77106;BME280;66057;54.718;18.426;2022-12-18T06:36:55;103194.84;;;-4.22;81.11
77106;BME280;66057;54.718;18.426;2022-12-18T06:39:21;103181.91;;;-4.31;80.99
77106;BME280;66057;54.718;18.426;2022-12-18T06:41:47;103193.38;;;-4.33;80.67
77106;BME280;66057;54.718;18.426;2022-12-18T06:44:13;103194.59;;;-4.42;80.83
77106;BME280;66057;54.718;18.426;2022-12-18T06:46:38;103195.56;;;-4.47;80.62
77106;BME280;66057;54.718;18.426;2022-12-18T06:49:04;103201.56;;;-4.52;80.41
77106;BME280;66057;54.718;18.426;2022-12-18T06:51:30;103214.16;;;-4.58;81.56
77106;BME280;66057;54.718;18.426;2022-12-18T06:53:56;103217.63;;;-4.63;80.08
77106;BME280;66057;54.718;18.426;2022-12-18T06:56:21;103217.06;;;-4.78;81.42
77106;BME280;66057;54.718;18.426;2022-12-18T06:58:47;103220.09;;;-4.87;80.95
77106;BME280;66057;54.718;18.426;2022-12-18T07:01:13;103218.59;;;-4.97;81.38
77106;BME280;66057;54.718;18.426;2022-12-18T07:03:40;103235.63;;;-4.89;80.20
77106;BME280;66057;54.718;18.426;2022-12-18T07:06:13;103241.13;;;-4.92;80.73
77106;BME280;66057;54.718;18.426;2022-12-18T07:08:39;103229.31;;;-4.98;81.73
77106;BME280;66057;54.718;18.426;2022-12-18T07:11:05;103242.03;;;-4.91;81.20
77106;BME280;66057;54.718;18.426;2022-12-18T07:13:31;103238.19;;;-4.95;80.73
77106;BME280;66057;54.718;18.426;2022-12-18T07:16:11;103245.41;;;-4.85;80.93
77106;BME280;66057;54.718;18.426;2022-12-18T07:18:37;103238.84;;;-4.90;80.08
77106;BME280;66057;54.718;18.426;2022-12-18T07:21:04;103236.06;;;-4.86;81.38
77106;BME280;66057;54.718;18.426;2022-12-18T07:23:32;103246.09;;;-4.86;80.58
77106;BME280;66057;54.718;18.426;2022-12-18T07:26:02;103249.78;;;-4.90;80.85
77106;BME280;66057;54.718;18.426;2022-12-18T07:28:28;103252.78;;;-4.98;80.92
77106;BME280;66057;54.718;18.426;2022-12-18T07:30:54;103263.31;;;-5.00;80.54
77106;BME280;66057;54.718;18.426;2022-12-18T07:33:19;103270.13;;;-4.99;79.76
77106;BME280;66057;54.718;18.426;2022-12-18T07:35:45;103272.19;;;-5.02;80.39
77106;BME280;66057;54.718;18.426;2022-12-18T07:38:11;103276.03;;;-4.99;81.36
77106;BME280;66057;54.718;18.426;2022-12-18T07:40:36;103266.69;;;-4.94;80.18
77106;BME280;66057;54.718;18.426;2022-12-18T07:43:02;103248.94;;;-5.01;80.51
77106;BME280;66057;54.718;18.426;2022-12-18T07:45:28;103254.63;;;-5.02;80.13
77106;BME280;66057;54.718;18.426;2022-12-18T07:47:54;103256.34;;;-5.14;79.34
77106;BME280;66057;54.718;18.426;2022-12-18T07:50:19;103259.53;;;-5.15;80.28
77106;BME280;66057;54.718;18.426;2022-12-18T07:52:45;103264.50;;;-5.09;80.53
77106;BME280;66057;54.718;18.426;2022-12-18T07:55:11;103265.34;;;-5.03;80.42
77106;BME280;66057;54.718;18.426;2022-12-18T07:57:36;103277.38;;;-4.90;80.98
77106;BME280;66057;54.718;18.426;2022-12-18T08:00:03;103274.09;;;-4.83;81.52
77106;BME280;66057;54.718;18.426;2022-12-18T08:02:30;103281.56;;;-4.72;79.86
77106;BME280;66057;54.718;18.426;2022-12-18T08:04:56;103276.03;;;-4.69;79.17
77106;BME280;66057;54.718;18.426;2022-12-18T08:07:22;103264.53;;;-4.80;79.98
77106;BME280;66057;54.718;18.426;2022-12-18T08:09:48;103289.75;;;-4.73;79.27
77106;BME280;66057;54.718;18.426;2022-12-18T08:12:14;103289.75;;;-4.73;79.29
77106;BME280;66057;54.718;18.426;2022-12-18T08:14:39;103291.75;;;-4.65;79.53
77106;BME280;66057;54.718;18.426;2022-12-18T08:17:06;103274.38;;;-4.58;80.17
77106;BME280;66057;54.718;18.426;2022-12-18T08:19:32;103275.84;;;-4.42;78.83
77106;BME280;66057;54.718;18.426;2022-12-18T08:21:58;103298.75;;;-4.27;79.86
77106;BME280;66057;54.718;18.426;2022-12-18T08:24:23;103285.22;;;-4.22;79.82
77106;BME280;66057;54.718;18.426;2022-12-18T08:26:49;103297.47;;;-4.13;78.64
77106;BME280;66057;54.718;18.426;2022-12-18T08:29:15;103297.38;;;-4.07;77.82
77106;BME280;66057;54.718;18.426;2022-12-18T08:31:41;103297.38;;;-4.07;78.34
77106;BME280;66057;54.718;18.426;2022-12-18T08:34:08;103294.97;;;-3.94;77.45
77106;BME280;66057;54.718;18.426;2022-12-18T08:36:34;103288.78;;;-3.91;77.41
77106;BME280;66057;54.718;18.426;2022-12-18T08:38:59;103298.69;;;-3.80;77.97
77106;BME280;66057;54.718;18.426;2022-12-18T08:41:25;103289.00;;;-3.71;77.34
77106;BME280;66057;54.718;18.426;2022-12-18T08:43:50;103287.13;;;-3.67;76.42
77106;BME280;66057;54.718;18.426;2022-12-18T08:46:40;103294.25;;;-3.52;76.30
77106;BME280;66057;54.718;18.426;2022-12-18T08:49:06;103288.38;;;-3.39;76.65
77106;BME280;66057;54.718;18.426;2022-12-18T08:51:33;103292.13;;;-3.30;74.77
77106;BME280;66057;54.718;18.426;2022-12-18T08:53:59;103291.56;;;-3.22;75.20
77106;BME280;66057;54.718;18.426;2022-12-18T08:56:25;103290.16;;;-3.20;75.38
77106;BME280;66057;54.718;18.426;2022-12-18T08:58:54;103293.66;;;-3.25;74.66
77106;BME280;66057;54.718;18.426;2022-12-18T09:01:20;103283.59;;;-3.25;75.86
77106;BME280;66057;54.718;18.426;2022-12-18T09:03:50;103297.69;;;-3.20;75.70
77106;BME280;66057;54.718;18.426;2022-12-18T09:06:17;103300.91;;;-3.21;76.13
77106;BME280;66057;54.718;18.426;2022-12-18T09:08:44;103294.28;;;-3.21;75.63
77106;BME280;66057;54.718;18.426;2022-12-18T09:11:29;103288.88;;;-3.11;74.29
77106;BME280;66057;54.718;18.426;2022-12-18T09:13:55;103288.47;;;-3.14;75.78
77106;BME280;66057;54.718;18.426;2022-12-18T09:16:22;103285.88;;;-3.09;74.94
77106;BME280;66057;54.718;18.426;2022-12-18T09:18:48;103290.00;;;-3.09;74.60
77106;BME280;66057;54.718;18.426;2022-12-18T09:21:16;103287.78;;;-3.13;75.26
77106;BME280;66057;54.718;18.426;2022-12-18T09:23:42;103291.28;;;-3.18;76.48
77106;BME280;66057;54.718;18.426;2022-12-18T09:26:08;103298.53;;;-3.14;75.20
77106;BME280;66057;54.718;18.426;2022-12-18T09:28:34;103290.31;;;-3.13;75.11
77106;BME280;66057;54.718;18.426;2022-12-18T09:31:07;103305.44;;;-3.00;74.75
77106;BME280;66057;54.718;18.426;2022-12-18T09:33:37;103307.19;;;-2.94;75.38
77106;BME280;66057;54.718;18.426;2022-12-18T09:36:05;103300.31;;;-2.95;75.29
77106;BME280;66057;54.718;18.426;2022-12-18T09:38:32;103310.22;;;-2.84;75.37
77106;BME280;66057;54.718;18.426;2022-12-18T09:41:23;103316.28;;;-2.76;74.86
77106;BME280;66057;54.718;18.426;2022-12-18T09:43:57;103321.22;;;-2.71;74.75
77106;BME280;66057;54.718;18.426;2022-12-18T09:46:28;103319.09;;;-2.68;74.29
77106;BME280;66057;54.718;18.426;2022-12-18T09:48:59;103316.13;;;-2.65;73.54
77106;BME280;66057;54.718;18.426;2022-12-18T09:51:40;103316.44;;;-2.56;73.42
77106;BME280;66057;54.718;18.426;2022-12-18T09:54:16;103303.63;;;-2.58;73.63
77106;BME280;66057;54.718;18.426;2022-12-18T09:56:43;103292.16;;;-2.56;73.34
77106;BME280;66057;54.718;18.426;2022-12-18T09:59:35;103304.06;;;-2.42;73.07
77106;BME280;66057;54.718;18.426;2022-12-18T10:02:14;103296.31;;;-2.31;72.63
77106;BME280;66057;54.718;18.426;2022-12-18T10:04:41;103295.81;;;-2.29;71.92
77106;BME280;66057;54.718;18.426;2022-12-18T10:07:18;103288.94;;;-2.30;72.19
77106;BME280;66057;54.718;18.426;2022-12-18T10:10:03;103302.13;;;-2.25;71.51
77106;BME280;66057;54.718;18.426;2022-12-18T10:12:40;103316.25;;;-2.20;71.84
77106;BME280;66057;54.718;18.426;2022-12-18T10:17:51;103323.31;;;-2.05;70.80
77106;BME280;66057;54.718;18.426;2022-12-18T10:20:34;103319.19;;;-2.04;70.56
77106;BME280;66057;54.718;18.426;2022-12-18T10:23:21;103306.38;;;-2.06;70.15
77106;BME280;66057;54.718;18.426;2022-12-18T10:28:25;103309.59;;;-1.94;70.34
77106;BME280;66057;54.718;18.426;2022-12-18T10:30:52;103307.31;;;-1.93;70.63
77106;BME280;66057;54.718;18.426;2022-12-18T10:33:23;103308.22;;;-1.92;70.12
77106;BME280;66057;54.718;18.426;2022-12-18T10:35:50;103316.16;;;-1.89;70.38
77106;BME280;66057;54.718;18.426;2022-12-18T10:41:04;103335.31;;;-1.84;70.12
77106;BME280;66057;54.718;18.426;2022-12-18T10:43:35;103326.03;;;-1.91;70.19
77106;BME280;66057;54.718;18.426;2022-12-18T10:51:32;103305.44;;;-1.81;69.55
77106;BME280;66057;54.718;18.426;2022-12-18T10:54:06;103287.91;;;-1.74;69.18
77106;BME280;66057;54.718;18.426;2022-12-18T10:56:38;103288.56;;;-1.62;69.31
77106;BME280;66057;54.718;18.426;2022-12-18T10:59:06;103287.97;;;-1.54;69.52
77106;BME280;66057;54.718;18.426;2022-12-18T11:01:54;103297.03;;;-1.49;68.68
77106;BME280;66057;54.718;18.426;2022-12-18T11:04:30;103302.16;;;-1.42;67.53
77106;BME280;66057;54.718;18.426;2022-12-18T11:07:03;103298.22;;;-1.40;67.91
77106;BME280;66057;54.718;18.426;2022-12-18T11:09:31;103287.47;;;-1.32;68.13
77106;BME280;66057;54.718;18.426;2022-12-18T11:11:59;103287.09;;;-1.35;67.77
77106;BME280;66057;54.718;18.426;2022-12-18T11:14:31;103282.66;;;-1.30;67.62
77106;BME280;66057;54.718;18.426;2022-12-18T11:16:59;103300.03;;;-1.19;67.37
77106;BME280;66057;54.718;18.426;2022-12-18T11:19:33;103302.44;;;-1.14;65.82
77106;BME280;66057;54.718;18.426;2022-12-18T11:21:59;103288.09;;;-1.08;65.92
77106;BME280;66057;54.718;18.426;2022-12-18T11:24:32;103296.94;;;-1.04;65.32
77106;BME280;66057;54.718;18.426;2022-12-18T11:27:04;103304.34;;;-1.06;64.81
77106;BME280;66057;54.718;18.426;2022-12-18T11:29:36;103310.22;;;-0.93;64.74
77106;BME280;66057;54.718;18.426;2022-12-18T11:34:42;103335.41;;;-0.60;63.57
77106;BME280;66057;54.718;18.426;2022-12-18T11:37:11;103321.50;;;-0.37;63.87
77106;BME280;66057;54.718;18.426;2022-12-18T11:39:49;103323.88;;;-0.05;63.34
77106;BME280;66057;54.718;18.426;2022-12-18T11:47:52;103326.38;;;-0.12;61.46
77106;BME280;66057;54.718;18.426;2022-12-18T11:50:44;103326.53;;;-0.44;63.93
77106;BME280;66057;54.718;18.426;2022-12-18T11:53:12;103330.84;;;-0.43;63.53
77106;BME280;66057;54.718;18.426;2022-12-18T11:55:49;103336.19;;;-0.27;62.83
77106;BME280;66057;54.718;18.426;2022-12-18T12:04:04;103344.00;;;0.49;60.05
77106;BME280;66057;54.718;18.426;2022-12-18T12:12:47;103343.00;;;0.61;57.33
77106;BME280;66057;54.718;18.426;2022-12-18T12:15:34;103336.31;;;0.69;58.93
77106;BME280;66057;54.718;18.426;2022-12-18T12:21:07;103331.91;;;0.54;58.14
77106;BME280;66057;54.718;18.426;2022-12-18T12:23:55;103337.69;;;0.46;59.25
77106;BME280;66057;54.718;18.426;2022-12-18T12:34:24;103322.34;;;0.51;58.43
77106;BME280;66057;54.718;18.426;2022-12-18T12:37:20;103324.56;;;0.62;57.68
77106;BME280;66057;54.718;18.426;2022-12-18T12:39:50;103319.34;;;0.75;57.28
77106;BME280;66057;54.718;18.426;2022-12-18T12:42:42;103327.50;;;0.79;57.39
77106;BME280;66057;54.718;18.426;2022-12-18T12:45:34;103328.41;;;0.80;56.31
77106;BME280;66057;54.718;18.426;2022-12-18T12:48:02;103322.41;;;0.72;57.14
77106;BME280;66057;54.718;18.426;2022-12-18T12:50:33;103326.47;;;0.43;58.54
77106;BME280;66057;54.718;18.426;2022-12-18T12:53:01;103322.09;;;0.35;59.19
77106;BME280;66057;54.718;18.426;2022-12-18T12:55:32;103316.69;;;0.32;58.10
77106;BME280;66057;54.718;18.426;2022-12-18T13:00:28;103312.22;;;0.51;57.93
77106;BME280;66057;54.718;18.426;2022-12-18T13:03:01;103315.34;;;0.70;56.81
77106;BME280;66057;54.718;18.426;2022-12-18T13:05:41;103307.25;;;0.79;56.97
77106;BME280;66057;54.718;18.426;2022-12-18T13:08:21;103311.59;;;0.87;56.85
77106;BME280;66057;54.718;18.426;2022-12-18T13:10:48;103312.81;;;0.77;56.43
77106;BME280;66057;54.718;18.426;2022-12-18T13:13:14;103312.31;;;0.86;55.89
77106;BME280;66057;54.718;18.426;2022-12-18T13:15:45;103315.19;;;0.75;56.02
77106;BME280;66057;54.718;18.426;2022-12-18T13:18:19;103309.38;;;0.69;56.97
77106;BME280;66057;54.718;18.426;2022-12-18T13:25:50;103319.06;;;0.38;58.04
77106;BME280;66057;54.718;18.426;2022-12-18T13:28:21;103308.41;;;0.07;58.06
77106;BME280;66057;54.718;18.426;2022-12-18T13:30:51;103308.22;;;0.05;57.82
77106;BME280;66057;54.718;18.426;2022-12-18T13:36:00;103309.63;;;-0.04;59.49
77106;BME280;66057;54.718;18.426;2022-12-18T13:38:37;103295.91;;;0.01;59.05
77106;BME280;66057;54.718;18.426;2022-12-18T13:51:17;103307.75;;;-0.66;59.43
77106;BME280;66057;54.718;18.426;2022-12-18T13:53:57;103302.19;;;-0.63;59.52
77106;BME280;66057;54.718;18.426;2022-12-18T13:56:27;103299.94;;;-0.74;59.65
77106;BME280;66057;54.718;18.426;2022-12-18T13:59:32;103282.72;;;-0.84;61.02
77106;BME280;66057;54.718;18.426;2022-12-18T14:02:05;103289.34;;;-0.92;61.45
77106;BME280;66057;54.718;18.426;2022-12-18T14:04:35;103285.63;;;-1.01;62.10
77106;BME280;66057;54.718;18.426;2022-12-18T14:07:06;103298.50;;;-1.12;62.17
77106;BME280;66057;54.718;18.426;2022-12-18T14:09:39;103296.56;;;-1.27;63.32
77106;BME280;66057;54.718;18.426;2022-12-18T14:12:06;103303.31;;;-1.33;62.54
77106;BME280;66057;54.718;18.426;2022-12-18T14:14:51;103310.72;;;-1.47;63.75
77106;BME280;66057;54.718;18.426;2022-12-18T14:17:18;103318.81;;;-1.50;63.24
77106;BME280;66057;54.718;18.426;2022-12-18T14:19:46;103318.13;;;-1.61;64.12
77106;BME280;66057;54.718;18.426;2022-12-18T14:22:16;103316.63;;;-1.66;64.74
77106;BME280;66057;54.718;18.426;2022-12-18T14:24:42;103323.38;;;-1.72;65.51
77106;BME280;66057;54.718;18.426;2022-12-18T14:27:23;103325.31;;;-1.77;65.15